地図

経路データ

SID SEASON NUMBER BASIN SUBBASIN NAME ISO_TIME NATURE LAT LON WMO_WIND WMO_PRES WMO_AGENCY TRACK_TYPE DIST2LAND LANDFALL IFLAG USA_AGENCY USA_ATCF_ID USA_LAT USA_LON USA_RECORD USA_STATUS USA_WIND USA_PRES USA_SSHS USA_R34_NE USA_R34_SE USA_R34_SW USA_R34_NW USA_R50_NE USA_R50_SE USA_R50_SW USA_R50_NW USA_R64_NE USA_R64_SE USA_R64_SW USA_R64_NW USA_POCI USA_ROCI USA_RMW USA_EYE TOKYO_LAT TOKYO_LON TOKYO_GRADE TOKYO_WIND TOKYO_PRES TOKYO_R50_DIR TOKYO_R50_LONG TOKYO_R50_SHORT TOKYO_R30_DIR TOKYO_R30_LONG TOKYO_R30_SHORT TOKYO_LAND CMA_LAT CMA_LON CMA_CAT CMA_WIND CMA_PRES HKO_LAT HKO_LON HKO_CAT HKO_WIND HKO_PRES NEWDELHI_LAT NEWDELHI_LON NEWDELHI_GRADE NEWDELHI_WIND NEWDELHI_PRES NEWDELHI_CI NEWDELHI_DP NEWDELHI_POCI REUNION_LAT REUNION_LON REUNION_TYPE REUNION_WIND REUNION_PRES REUNION_TNUM REUNION_CI REUNION_RMW REUNION_R34_NE REUNION_R34_SE REUNION_R34_SW REUNION_R34_NW REUNION_R50_NE REUNION_R50_SE REUNION_R50_SW REUNION_R50_NW REUNION_R64_NE REUNION_R64_SE REUNION_R64_SW REUNION_R64_NW BOM_LAT BOM_LON BOM_TYPE BOM_WIND BOM_PRES BOM_TNUM BOM_CI BOM_RMW BOM_R34_NE BOM_R34_SE BOM_R34_SW BOM_R34_NW BOM_R50_NE BOM_R50_SE BOM_R50_SW BOM_R50_NW BOM_R64_NE BOM_R64_SE BOM_R64_SW BOM_R64_NW BOM_ROCI BOM_POCI BOM_EYE BOM_POS_METHOD BOM_PRES_METHOD NADI_LAT NADI_LON NADI_CAT NADI_WIND NADI_PRES WELLINGTON_LAT WELLINGTON_LON WELLINGTON_WIND WELLINGTON_PRES DS824_LAT DS824_LON DS824_STAGE DS824_WIND DS824_PRES TD9636_LAT TD9636_LON TD9636_STAGE TD9636_WIND TD9636_PRES TD9635_LAT TD9635_LON TD9635_WIND TD9635_PRES TD9635_ROCI NEUMANN_LAT NEUMANN_LON NEUMANN_CLASS NEUMANN_WIND NEUMANN_PRES MLC_LAT MLC_LON MLC_CLASS MLC_WIND MLC_PRES USA_GUST BOM_GUST BOM_GUST_PER REUNION_GUST REUNION_GUST_PER USA_SEAHGT USA_SEARAD_NE USA_SEARAD_SE USA_SEARAD_SW USA_SEARAD_NW STORM_SPEED STORM_DIR
1966017S17077 1966 5 SI MM NOT_NAMED 1966-01-16 18:00:00 TS -16.8000 76.6000 main 2019 1988 O________OO___ jtwc_sh SH171966 -16.8000 76.6000 -1 -16.8000 76.6000 TC 25 -16.8000 76.6000 7 6 270
1966017S17077 1966 5 SI MM NOT_NAMED 1966-01-16 21:00:00 TS -16.8023 76.2951 main 1988 1957 P________PP___ SH171966 -16.8001 76.2825 -1 -16.8001 76.2825 TC 25 -16.8067 76.3203 7 6 270
1966017S17077 1966 5 SI MM NOT_NAMED 1966-01-17 00:00:00 TS -16.8035 76.0175 main 1957 1936 O________OP___ jtwc_sh SH171966 -16.8000 76.0000 -1 -16.8000 76.0000 TC 25 -16.8105 76.0525 7 5 270
1966017S17077 1966 5 SI MM NOT_NAMED 1966-01-17 03:00:00 TS -16.8030 75.7878 main 1936 1915 P________PP___ SH171966 -16.7999 75.7775 -1 -16.7999 75.7775 TC 25 -16.8090 75.8084 7 4 271
1966017S17077 1966 5 SI MM NOT_NAMED 1966-01-17 06:00:00 TS -16.8000 75.6000 main 1915 1895 O________OO___ jtwc_sh SH171966 -16.8000 75.6000 -1 -16.8000 75.6000 TC 25 -16.8000 75.6000 7 3 271
1966017S17077 1966 5 SI MM NOT_NAMED 1966-01-17 09:00:00 TS -16.7990 75.4395 main 1895 1884 P________PP___ SH171966 -16.8075 75.4425 -1 -16.8075 75.4425 TC 25 -16.7820 75.4334 7 3 273
1966017S17077 1966 5 SI MM NOT_NAMED 1966-01-17 12:00:00 TS -16.7857 75.2975 main 1884 1874 O________OP___ jtwc_sh SH171966 -16.8000 75.3000 -1 -16.8000 75.3000 TC 25 -16.7572 75.2925 7 3 282
1966017S17077 1966 5 SI MM NOT_NAMED 1966-01-17 15:00:00 TS -16.7429 75.1568 main 1877 1856 P________PP___ SH171966 -16.7500 75.1575 -1 -16.7500 75.1575 TC 25 -16.7288 75.1553 7 3 287
1966017S17077 1966 5 SI MM NOT_NAMED 1966-01-17 18:00:00 TS -16.7000 75.0000 main 1856 1836 O________OO___ jtwc_sh SH171966 -16.7000 75.0000 -1 -16.7000 75.0000 TC 25 -16.7000 75.0000 7 3 279
1966017S17077 1966 5 SI MM NOT_NAMED 1966-01-17 21:00:00 TS -16.6916 74.8116 main 1836 1815 P________PP___ SH171966 -16.7000 74.8150 -1 -16.7000 74.8150 TC 25 -16.6750 74.8047 7 4 272
1966017S17077 1966 5 SI MM NOT_NAMED 1966-01-18 00:00:00 TS -16.6833 74.5958 main 1815 1795 O________OP___ jtwc_sh SH171966 -16.7000 74.6000 -1 -16.7000 74.6000 TC 25 -16.6499 74.5875 7 4 277
1966017S17077 1966 5 SI MM NOT_NAMED 1966-01-18 03:00:00 TS -16.6416 74.3605 main 1798 1767 P________PP___ SH171966 -16.6500 74.3650 -1 -16.6500 74.3650 TC 25 -16.6249 74.3516 7 5 280
1966017S17077 1966 5 SI MM NOT_NAMED 1966-01-18 06:00:00 TS -16.6000 74.1000 main 1767 1736 O________OO___ jtwc_sh SH171966 -16.6000 74.1000 -1 -16.6000 74.1000 TC 25 -16.6000 74.1000 7 5 275
1966017S17077 1966 5 SI MM NOT_NAMED 1966-01-18 09:00:00 TS -16.5931 73.8105 main 1736 1706 P________PP___ SH171966 -16.6000 73.8001 -1 -16.6000 73.8001 TC 25 -16.5791 73.8313 7 6 271
1966017S17077 1966 5 SI MM NOT_NAMED 1966-01-18 12:00:00 TS -16.5859 73.5167 main 1706 1685 O________OP___ jtwc_sh SH171966 -16.6000 73.5000 -1 -16.6000 73.5000 TC 25 -16.5576 73.5501 7 5 275
1966017S17077 1966 5 SI MM NOT_NAMED 1966-01-18 15:00:00 TS -16.5490 73.2513 main 1689 1658 P________PP___ SH171966 -16.5574 73.2425 -1 -16.5574 73.2425 TC 25 -16.5322 73.2688 7 5 280
1966017S17077 1966 5 SI MM NOT_NAMED 1966-01-18 18:00:00 TS -16.5000 73.0000 main 1658 1638 O________OO___ jtwc_sh SH171966 -16.5000 73.0000 -1 -16.5000 73.0000 TC 25 -16.5000 73.0000 7 5 281
1966017S17077 1966 5 SI MM NOT_NAMED 1966-01-18 21:00:00 TS -16.4529 72.7460 main 1627 1611 P________PP___ SH171966 -16.4500 72.7425 -1 -16.4500 72.7425 TC 25 -16.4587 72.7531 7 5 282
1966017S17077 1966 5 SI MM NOT_NAMED 1966-01-19 00:00:00 TS -16.4033 72.5083 main 1611 1590 O________OP___ jtwc_sh SH171966 -16.4000 72.5000 -1 -16.4000 72.5000 TC 25 -16.4100 72.5249 7 4 283
1966017S17077 1966 5 SI MM NOT_NAMED 1966-01-19 03:00:00 TS -16.3521 72.2964 main 1590 1574 P________PP___ SH171966 -16.3500 72.2900 -1 -16.3500 72.2900 TC 25 -16.3563 72.3093 7 4 285
1966017S17077 1966 5 SI MM NOT_NAMED 1966-01-19 06:00:00 TS -16.3000 72.1000 main 1574 O________OO___ jtwc_sh SH171966 -16.3000 72.1000 -1 -16.3000 72.1000 TC 25 -16.3000 72.1000 7 4 285

IBTrACS Databaseについて

本データベースは、米国NOAAが公開する1842年以降の世界の熱帯低気圧のベストトラックデータアーカイブInternational Best Track Archive for Climate Stewardship (IBTrACS)を、ウェブで閲覧しやすい形式に変換したものです。

最終更新日:2021-10-08